sensor_id;sensor_type;location;lat;lon;timestamp;temperature;humidity
1680;DHT22;838;51.794;12.258;2024-03-08T00:02:03;1.60;14.40
1680;DHT22;838;51.794;12.258;2024-03-08T00:04:29;1.50;15.50
1680;DHT22;838;51.794;12.258;2024-03-08T00:06:55;1.40;17.20
1680;DHT22;838;51.794;12.258;2024-03-08T00:09:20;1.20;16.90
1680;DHT22;838;51.794;12.258;2024-03-08T00:11:47;1.50;17.10
1680;DHT22;838;51.794;12.258;2024-03-08T00:14:14;1.40;16.80
1680;DHT22;838;51.794;12.258;2024-03-08T00:16:40;1.50;16.90
1680;DHT22;838;51.794;12.258;2024-03-08T00:19:09;1.60;16.80
1680;DHT22;838;51.794;12.258;2024-03-08T00:21:35;1.60;15.60
1680;DHT22;838;51.794;12.258;2024-03-08T00:24:01;1.60;15.40
1680;DHT22;838;51.794;12.258;2024-03-08T00:26:27;1.60;16.30
1680;DHT22;838;51.794;12.258;2024-03-08T00:28:54;1.90;14.40
1680;DHT22;838;51.794;12.258;2024-03-08T00:31:19;2.00;14.20
1680;DHT22;838;51.794;12.258;2024-03-08T00:33:46;2.00;12.40
1680;DHT22;838;51.794;12.258;2024-03-08T00:36:11;2.00;11.30
1680;DHT22;838;51.794;12.258;2024-03-08T00:38:37;2.00;11.30
1680;DHT22;838;51.794;12.258;2024-03-08T00:41:03;1.90;11.30
1680;DHT22;838;51.794;12.258;2024-03-08T00:43:28;2.00;10.20
1680;DHT22;838;51.794;12.258;2024-03-08T00:45:57;2.00;11.50
1680;DHT22;838;51.794;12.258;2024-03-08T00:48:23;2.10;9.60
1680;DHT22;838;51.794;12.258;2024-03-08T00:50:49;2.00;10.40
1680;DHT22;838;51.794;12.258;2024-03-08T00:53:15;2.00;11.10
1680;DHT22;838;51.794;12.258;2024-03-08T00:55:40;2.00;9.80
1680;DHT22;838;51.794;12.258;2024-03-08T00:58:06;1.90;10.00
1680;DHT22;838;51.794;12.258;2024-03-08T01:00:33;1.80;10.30
1680;DHT22;838;51.794;12.258;2024-03-08T01:02:59;1.80;11.40
1680;DHT22;838;51.794;12.258;2024-03-08T01:05:25;1.70;12.00
1680;DHT22;838;51.794;12.258;2024-03-08T01:07:51;1.60;11.90
1680;DHT22;838;51.794;12.258;2024-03-08T01:10:17;1.30;13.80
1680;DHT22;838;51.794;12.258;2024-03-08T01:12:43;1.10;16.60
1680;DHT22;838;51.794;12.258;2024-03-08T01:15:10;0.90;18.00
1680;DHT22;838;51.794;12.258;2024-03-08T01:17:38;0.80;19.90
1680;DHT22;838;51.794;12.258;2024-03-08T01:20:05;0.80;20.00
1680;DHT22;838;51.794;12.258;2024-03-08T01:22:32;0.70;21.40
1680;DHT22;838;51.794;12.258;2024-03-08T01:24:57;0.60;22.80
1680;DHT22;838;51.794;12.258;2024-03-08T01:27:23;0.60;23.50
1680;DHT22;838;51.794;12.258;2024-03-08T01:29:50;0.50;23.30
1680;DHT22;838;51.794;12.258;2024-03-08T01:32:16;0.40;24.90
1680;DHT22;838;51.794;12.258;2024-03-08T01:34:41;0.30;26.70
1680;DHT22;838;51.794;12.258;2024-03-08T01:37:07;0.40;26.80
1680;DHT22;838;51.794;12.258;2024-03-08T01:39:33;0.40;26.60
1680;DHT22;838;51.794;12.258;2024-03-08T01:41:59;0.40;26.20
1680;DHT22;838;51.794;12.258;2024-03-08T01:44:26;0.30;26.70
1680;DHT22;838;51.794;12.258;2024-03-08T01:46:53;0.30;27.50
1680;DHT22;838;51.794;12.258;2024-03-08T01:49:20;0.30;27.30
1680;DHT22;838;51.794;12.258;2024-03-08T01:51:48;0.30;27.70
1680;DHT22;838;51.794;12.258;2024-03-08T01:54:15;0.30;27.30
1680;DHT22;838;51.794;12.258;2024-03-08T01:56:41;0.30;26.50
1680;DHT22;838;51.794;12.258;2024-03-08T01:59:07;0.40;27.70
1680;DHT22;838;51.794;12.258;2024-03-08T02:01:34;0.40;26.10
1680;DHT22;838;51.794;12.258;2024-03-08T02:04:00;0.40;26.20
1680;DHT22;838;51.794;12.258;2024-03-08T02:06:25;0.50;25.90
1680;DHT22;838;51.794;12.258;2024-03-08T02:08:51;0.40;25.50
1680;DHT22;838;51.794;12.258;2024-03-08T02:11:17;0.40;25.60
1680;DHT22;838;51.794;12.258;2024-03-08T02:13:44;0.30;26.80
1680;DHT22;838;51.794;12.258;2024-03-08T02:16:10;0.30;26.70
1680;DHT22;838;51.794;12.258;2024-03-08T02:18:36;0.30;28.00
1680;DHT22;838;51.794;12.258;2024-03-08T02:21:03;0.30;27.20
1680;DHT22;838;51.794;12.258;2024-03-08T02:23:29;0.40;26.20
1680;DHT22;838;51.794;12.258;2024-03-08T02:25:56;0.40;25.50
1680;DHT22;838;51.794;12.258;2024-03-08T02:28:23;0.30;26.50
1680;DHT22;838;51.794;12.258;2024-03-08T02:30:51;0.30;27.30
1680;DHT22;838;51.794;12.258;2024-03-08T02:33:20;0.30;26.30
1680;DHT22;838;51.794;12.258;2024-03-08T02:35:46;0.30;27.80
1680;DHT22;838;51.794;12.258;2024-03-08T02:38:17;0.20;28.10
1680;DHT22;838;51.794;12.258;2024-03-08T02:40:44;0.40;28.00
1680;DHT22;838;51.794;12.258;2024-03-08T02:43:11;0.60;26.30
1680;DHT22;838;51.794;12.258;2024-03-08T02:45:37;0.80;25.20
1680;DHT22;838;51.794;12.258;2024-03-08T02:48:04;0.80;21.70
1680;DHT22;838;51.794;12.258;2024-03-08T02:50:32;0.80;23.00
1680;DHT22;838;51.794;12.258;2024-03-08T02:52:57;0.60;22.90
1680;DHT22;838;51.794;12.258;2024-03-08T02:55:23;0.30;23.00
1680;DHT22;838;51.794;12.258;2024-03-08T02:57:52;0.60;24.90
1680;DHT22;838;51.794;12.258;2024-03-08T03:00:18;0.50;24.40
1680;DHT22;838;51.794;12.258;2024-03-08T03:02:45;0.50;24.60
1680;DHT22;838;51.794;12.258;2024-03-08T03:05:11;0.50;25.10
1680;DHT22;838;51.794;12.258;2024-03-08T03:07:38;0.50;23.50
1680;DHT22;838;51.794;12.258;2024-03-08T03:10:04;0.50;25.00
1680;DHT22;838;51.794;12.258;2024-03-08T03:12:31;0.50;24.40
1680;DHT22;838;51.794;12.258;2024-03-08T03:15:00;0.50;25.00
1680;DHT22;838;51.794;12.258;2024-03-08T03:17:26;0.40;24.90
1680;DHT22;838;51.794;12.258;2024-03-08T03:19:54;0.40;25.00
1680;DHT22;838;51.794;12.258;2024-03-08T03:22:21;0.40;25.20
1680;DHT22;838;51.794;12.258;2024-03-08T03:24:47;0.40;24.90
1680;DHT22;838;51.794;12.258;2024-03-08T03:27:16;0.40;25.80
1680;DHT22;838;51.794;12.258;2024-03-08T03:29:42;0.40;24.90
1680;DHT22;838;51.794;12.258;2024-03-08T03:32:11;0.40;25.00
1680;DHT22;838;51.794;12.258;2024-03-08T03:34:38;0.50;25.60
1680;DHT22;838;51.794;12.258;2024-03-08T03:37:04;0.40;25.70
1680;DHT22;838;51.794;12.258;2024-03-08T03:39:30;0.40;24.40
1680;DHT22;838;51.794;12.258;2024-03-08T03:42:16;0.40;25.10
1680;DHT22;838;51.794;12.258;2024-03-08T03:44:46;0.40;24.90
1680;DHT22;838;51.794;12.258;2024-03-08T03:47:13;0.30;26.20
1680;DHT22;838;51.794;12.258;2024-03-08T03:49:40;0.20;26.00
1680;DHT22;838;51.794;12.258;2024-03-08T03:52:06;0.20;27.00
1680;DHT22;838;51.794;12.258;2024-03-08T03:54:31;0.00;27.00
1680;DHT22;838;51.794;12.258;2024-03-08T03:56:58;0.00;28.00
1680;DHT22;838;51.794;12.258;2024-03-08T03:59:24;0.00;27.10
1680;DHT22;838;51.794;12.258;2024-03-08T04:01:50;0.10;28.50
1680;DHT22;838;51.794;12.258;2024-03-08T04:04:16;0.00;27.50
1680;DHT22;838;51.794;12.258;2024-03-08T04:06:41;0.00;27.80
1680;DHT22;838;51.794;12.258;2024-03-08T04:09:07;0.00;28.30
1680;DHT22;838;51.794;12.258;2024-03-08T04:11:33;0.10;28.00
1680;DHT22;838;51.794;12.258;2024-03-08T04:13:59;0.20;26.30
1680;DHT22;838;51.794;12.258;2024-03-08T04:16:24;0.00;26.40
1680;DHT22;838;51.794;12.258;2024-03-08T04:18:51;-0.20;28.10
1680;DHT22;838;51.794;12.258;2024-03-08T04:21:17;-0.30;29.60
1680;DHT22;838;51.794;12.258;2024-03-08T04:23:44;-0.40;31.10
1680;DHT22;838;51.794;12.258;2024-03-08T04:26:11;-0.50;32.80
1680;DHT22;838;51.794;12.258;2024-03-08T04:28:36;-0.50;34.10
1680;DHT22;838;51.794;12.258;2024-03-08T04:31:03;-0.50;34.50
1680;DHT22;838;51.794;12.258;2024-03-08T04:33:29;-0.40;34.20
1680;DHT22;838;51.794;12.258;2024-03-08T04:35:55;-0.30;34.20
1680;DHT22;838;51.794;12.258;2024-03-08T04:38:21;0.00;32.00
1680;DHT22;838;51.794;12.258;2024-03-08T04:40:50;0.10;30.00
1680;DHT22;838;51.794;12.258;2024-03-08T04:43:16;0.20;29.80
1680;DHT22;838;51.794;12.258;2024-03-08T04:45:44;0.20;28.60
1680;DHT22;838;51.794;12.258;2024-03-08T04:48:10;0.20;26.80
1680;DHT22;838;51.794;12.258;2024-03-08T04:50:37;0.30;26.80
1680;DHT22;838;51.794;12.258;2024-03-08T04:53:03;0.20;26.30
1680;DHT22;838;51.794;12.258;2024-03-08T04:55:30;0.10;27.00
1680;DHT22;838;51.794;12.258;2024-03-08T04:57:55;0.20;27.60
1680;DHT22;838;51.794;12.258;2024-03-08T05:00:21;0.40;26.20
1680;DHT22;838;51.794;12.258;2024-03-08T05:02:47;0.40;24.90
1680;DHT22;838;51.794;12.258;2024-03-08T05:05:12;0.60;24.50
1680;DHT22;838;51.794;12.258;2024-03-08T05:07:41;0.50;23.30
1680;DHT22;838;51.794;12.258;2024-03-08T05:10:09;0.50;23.00
1680;DHT22;838;51.794;12.258;2024-03-08T05:12:34;0.50;22.40
1680;DHT22;838;51.794;12.258;2024-03-08T05:15:00;0.60;22.10
1680;DHT22;838;51.794;12.258;2024-03-08T05:17:26;0.70;22.20
1680;DHT22;838;51.794;12.258;2024-03-08T05:19:51;0.90;20.40
1680;DHT22;838;51.794;12.258;2024-03-08T05:22:17;0.80;19.00
1680;DHT22;838;51.794;12.258;2024-03-08T05:24:44;0.70;19.60
1680;DHT22;838;51.794;12.258;2024-03-08T05:27:10;0.50;20.70
1680;DHT22;838;51.794;12.258;2024-03-08T05:29:36;0.50;22.80
1680;DHT22;838;51.794;12.258;2024-03-08T05:32:02;0.70;21.20
1680;DHT22;838;51.794;12.258;2024-03-08T05:34:29;0.90;21.00
1680;DHT22;838;51.794;12.258;2024-03-08T05:36:55;0.80;19.80
1680;DHT22;838;51.794;12.258;2024-03-08T05:39:21;0.80;19.40
1680;DHT22;838;51.794;12.258;2024-03-08T05:41:47;0.70;19.10
1680;DHT22;838;51.794;12.258;2024-03-08T05:44:13;0.80;20.00
1680;DHT22;838;51.794;12.258;2024-03-08T05:46:39;0.80;19.60
1680;DHT22;838;51.794;12.258;2024-03-08T05:49:06;0.70;20.90
1680;DHT22;838;51.794;12.258;2024-03-08T05:51:37;0.70;20.40
1680;DHT22;838;51.794;12.258;2024-03-08T05:54:04;0.60;21.70
1680;DHT22;838;51.794;12.258;2024-03-08T05:56:31;0.80;23.60
1680;DHT22;838;51.794;12.258;2024-03-08T05:58:57;0.90;20.50
1680;DHT22;838;51.794;12.258;2024-03-08T06:01:26;1.00;21.50
1680;DHT22;838;51.794;12.258;2024-03-08T06:03:55;1.10;20.50
1680;DHT22;838;51.794;12.258;2024-03-08T06:06:25;1.00;20.90
1680;DHT22;838;51.794;12.258;2024-03-08T06:08:51;1.10;20.20
1680;DHT22;838;51.794;12.258;2024-03-08T06:11:18;1.20;20.90
1680;DHT22;838;51.794;12.258;2024-03-08T06:13:45;1.20;20.00
1680;DHT22;838;51.794;12.258;2024-03-08T06:16:14;1.50;20.90
1680;DHT22;838;51.794;12.258;2024-03-08T06:18:39;1.60;17.70
1680;DHT22;838;51.794;12.258;2024-03-08T06:21:07;1.60;17.50
1680;DHT22;838;51.794;12.258;2024-03-08T06:23:33;1.60;17.20
1680;DHT22;838;51.794;12.258;2024-03-08T06:25:59;1.50;17.90
1680;DHT22;838;51.794;12.258;2024-03-08T06:28:25;1.60;17.00
1680;DHT22;838;51.794;12.258;2024-03-08T06:30:51;1.70;16.70
1680;DHT22;838;51.794;12.258;2024-03-08T06:33:17;1.60;17.90
1680;DHT22;838;51.794;12.258;2024-03-08T06:35:43;1.60;17.50
1680;DHT22;838;51.794;12.258;2024-03-08T06:38:09;1.70;19.20
1680;DHT22;838;51.794;12.258;2024-03-08T06:40:35;2.00;17.80
1680;DHT22;838;51.794;12.258;2024-03-08T06:43:01;2.30;17.70
1680;DHT22;838;51.794;12.258;2024-03-08T06:45:26;2.50;13.40
1680;DHT22;838;51.794;12.258;2024-03-08T06:47:54;2.90;13.50
1680;DHT22;838;51.794;12.258;2024-03-08T06:50:20;3.20;9.10
1680;DHT22;838;51.794;12.258;2024-03-08T06:52:46;3.30;6.70
1680;DHT22;838;51.794;12.258;2024-03-08T06:55:16;3.30;5.50
1680;DHT22;838;51.794;12.258;2024-03-08T06:57:42;3.10;6.10
1680;DHT22;838;51.794;12.258;2024-03-08T07:00:09;2.90;7.90
1680;DHT22;838;51.794;12.258;2024-03-08T07:02:44;2.50;8.30
1680;DHT22;838;51.794;12.258;2024-03-08T07:05:11;2.00;14.10
1680;DHT22;838;51.794;12.258;2024-03-08T07:07:37;1.90;16.10
1680;DHT22;838;51.794;12.258;2024-03-08T07:10:03;2.00;17.10
1680;DHT22;838;51.794;12.258;2024-03-08T07:12:30;2.10;17.20
1680;DHT22;838;51.794;12.258;2024-03-08T07:14:55;2.20;15.50
1680;DHT22;838;51.794;12.258;2024-03-08T07:17:21;2.20;16.60
1680;DHT22;838;51.794;12.258;2024-03-08T07:19:47;2.50;16.80
1680;DHT22;838;51.794;12.258;2024-03-08T07:22:16;2.30;14.90
1680;DHT22;838;51.794;12.258;2024-03-08T07:24:42;2.40;17.30
1680;DHT22;838;51.794;12.258;2024-03-08T07:27:37;2.60;16.30
1680;DHT22;838;51.794;12.258;2024-03-08T07:30:03;2.90;14.80
1680;DHT22;838;51.794;12.258;2024-03-08T07:32:29;2.90;11.90
1680;DHT22;838;51.794;12.258;2024-03-08T07:34:58;3.00;12.90
1680;DHT22;838;51.794;12.258;2024-03-08T07:37:24;3.30;13.30
1680;DHT22;838;51.794;12.258;2024-03-08T07:39:50;3.80;11.60
1680;DHT22;838;51.794;12.258;2024-03-08T07:42:15;4.20;8.50
1680;DHT22;838;51.794;12.258;2024-03-08T07:44:42;4.80;4.30
1680;DHT22;838;51.794;12.258;2024-03-08T07:47:08;5.30;1.60
1680;DHT22;838;51.794;12.258;2024-03-08T07:49:35;5.60;1.00
1680;DHT22;838;51.794;12.258;2024-03-08T07:52:03;5.50;1.00
1680;DHT22;838;51.794;12.258;2024-03-08T07:54:30;5.40;1.00
1680;DHT22;838;51.794;12.258;2024-03-08T07:56:56;5.70;1.00
1680;DHT22;838;51.794;12.258;2024-03-08T07:59:21;6.00;1.00
1680;DHT22;838;51.794;12.258;2024-03-08T08:01:47;5.90;1.00
1680;DHT22;838;51.794;12.258;2024-03-08T08:04:13;5.90;1.00
1680;DHT22;838;51.794;12.258;2024-03-08T08:06:40;5.90;1.00
1680;DHT22;838;51.794;12.258;2024-03-08T08:09:12;6.00;1.00
1680;DHT22;838;51.794;12.258;2024-03-08T08:11:43;5.50;1.00
1680;DHT22;838;51.794;12.258;2024-03-08T08:14:12;5.30;1.00
1680;DHT22;838;51.794;12.258;2024-03-08T08:16:37;5.30;1.00
1680;DHT22;838;51.794;12.258;2024-03-08T08:19:06;5.10;1.00
1680;DHT22;838;51.794;12.258;2024-03-08T08:21:36;5.10;3.30
1680;DHT22;838;51.794;12.258;2024-03-08T08:24:03;5.40;3.70
1680;DHT22;838;51.794;12.258;2024-03-08T08:26:29;6.10;1.00
1680;DHT22;838;51.794;12.258;2024-03-08T08:28:55;6.60;1.00
1680;DHT22;838;51.794;12.258;2024-03-08T08:31:21;6.80;1.00
1680;DHT22;838;51.794;12.258;2024-03-08T08:33:47;6.50;1.00
1680;DHT22;838;51.794;12.258;2024-03-08T08:36:14;6.90;1.00
1680;DHT22;838;51.794;12.258;2024-03-08T08:38:40;7.20;1.00
1680;DHT22;838;51.794;12.258;2024-03-08T08:41:09;7.10;1.00
1680;DHT22;838;51.794;12.258;2024-03-08T08:43:36;6.80;1.00
1680;DHT22;838;51.794;12.258;2024-03-08T08:46:02;6.70;1.00
1680;DHT22;838;51.794;12.258;2024-03-08T08:48:28;6.80;1.00
1680;DHT22;838;51.794;12.258;2024-03-08T08:50:56;6.90;1.00
1680;DHT22;838;51.794;12.258;2024-03-08T08:53:22;7.20;1.00
1680;DHT22;838;51.794;12.258;2024-03-08T08:55:48;8.10;1.00
1680;DHT22;838;51.794;12.258;2024-03-08T08:58:14;9.10;1.00
1680;DHT22;838;51.794;12.258;2024-03-08T09:00:40;9.60;1.00
1680;DHT22;838;51.794;12.258;2024-03-08T09:03:05;9.30;1.00
1680;DHT22;838;51.794;12.258;2024-03-08T09:05:32;9.40;1.00
1680;DHT22;838;51.794;12.258;2024-03-08T09:07:59;9.70;1.00
1680;DHT22;838;51.794;12.258;2024-03-08T09:10:26;9.10;1.00
1680;DHT22;838;51.794;12.258;2024-03-08T09:12:53;9.20;1.00
1680;DHT22;838;51.794;12.258;2024-03-08T09:15:19;9.70;1.00
1680;DHT22;838;51.794;12.258;2024-03-08T09:17:46;10.50;1.00
1680;DHT22;838;51.794;12.258;2024-03-08T09:20:12;11.20;1.00
1680;DHT22;838;51.794;12.258;2024-03-08T09:22:43;11.50;1.00
1680;DHT22;838;51.794;12.258;2024-03-08T09:25:09;11.70;1.00
1680;DHT22;838;51.794;12.258;2024-03-08T09:27:35;11.00;1.00
1680;DHT22;838;51.794;12.258;2024-03-08T09:30:01;10.00;1.00
1680;DHT22;838;51.794;12.258;2024-03-08T09:32:27;10.30;1.00
1680;DHT22;838;51.794;12.258;2024-03-08T09:34:52;10.70;1.00
1680;DHT22;838;51.794;12.258;2024-03-08T09:37:18;10.60;1.00
1680;DHT22;838;51.794;12.258;2024-03-08T09:39:44;9.80;1.00
1680;DHT22;838;51.794;12.258;2024-03-08T09:42:10;9.60;1.00
1680;DHT22;838;51.794;12.258;2024-03-08T09:44:46;8.70;1.00
1680;DHT22;838;51.794;12.258;2024-03-08T09:47:15;8.20;1.00
1680;DHT22;838;51.794;12.258;2024-03-08T09:49:42;7.90;1.00
1680;DHT22;838;51.794;12.258;2024-03-08T09:52:09;7.70;1.00
1680;DHT22;838;51.794;12.258;2024-03-08T09:54:35;7.70;1.00
1680;DHT22;838;51.794;12.258;2024-03-08T09:57:03;7.80;1.00
1680;DHT22;838;51.794;12.258;2024-03-08T09:59:31;7.80;1.00
1680;DHT22;838;51.794;12.258;2024-03-08T10:02:03;7.80;1.00
1680;DHT22;838;51.794;12.258;2024-03-08T10:04:29;7.90;1.00
1680;DHT22;838;51.794;12.258;2024-03-08T10:06:58;7.90;1.00
1680;DHT22;838;51.794;12.258;2024-03-08T10:09:25;7.80;1.00
1680;DHT22;838;51.794;12.258;2024-03-08T10:11:56;7.70;1.00
1680;DHT22;838;51.794;12.258;2024-03-08T10:14:24;7.70;1.00
1680;DHT22;838;51.794;12.258;2024-03-08T10:16:50;7.60;1.00
1680;DHT22;838;51.794;12.258;2024-03-08T10:19:15;7.50;1.00
1680;DHT22;838;51.794;12.258;2024-03-08T10:21:51;7.60;1.00
1680;DHT22;838;51.794;12.258;2024-03-08T10:24:19;7.60;1.00
1680;DHT22;838;51.794;12.258;2024-03-08T10:26:45;7.70;1.00
1680;DHT22;838;51.794;12.258;2024-03-08T10:29:12;7.80;1.00
1680;DHT22;838;51.794;12.258;2024-03-08T10:31:43;7.70;1.00
1680;DHT22;838;51.794;12.258;2024-03-08T10:34:11;7.80;1.00
1680;DHT22;838;51.794;12.258;2024-03-08T10:36:39;7.70;1.00
1680;DHT22;838;51.794;12.258;2024-03-08T10:39:16;7.90;1.00
1680;DHT22;838;51.794;12.258;2024-03-08T10:42:06;7.80;1.00
1680;DHT22;838;51.794;12.258;2024-03-08T10:44:53;7.90;1.00
1680;DHT22;838;51.794;12.258;2024-03-08T10:47:30;7.90;1.00
1680;DHT22;838;51.794;12.258;2024-03-08T10:50:20;8.00;1.00
1680;DHT22;838;51.794;12.258;2024-03-08T10:52:51;7.80;1.00
1680;DHT22;838;51.794;12.258;2024-03-08T10:55:19;7.70;1.00
1680;DHT22;838;51.794;12.258;2024-03-08T10:57:48;7.80;1.00
1680;DHT22;838;51.794;12.258;2024-03-08T11:00:14;7.90;1.00
1680;DHT22;838;51.794;12.258;2024-03-08T11:02:44;8.00;1.00
1680;DHT22;838;51.794;12.258;2024-03-08T11:05:10;7.80;1.00
1680;DHT22;838;51.794;12.258;2024-03-08T11:07:50;8.00;1.00
1680;DHT22;838;51.794;12.258;2024-03-08T11:10:20;8.30;1.00
1680;DHT22;838;51.794;12.258;2024-03-08T11:12:46;8.60;1.00
1680;DHT22;838;51.794;12.258;2024-03-08T11:15:13;8.70;1.00
1680;DHT22;838;51.794;12.258;2024-03-08T11:17:40;8.70;1.00
1680;DHT22;838;51.794;12.258;2024-03-08T11:20:17;8.80;1.00
1680;DHT22;838;51.794;12.258;2024-03-08T11:28:16;9.00;1.00
1680;DHT22;838;51.794;12.258;2024-03-08T11:33:30;9.00;1.00
1680;DHT22;838;51.794;12.258;2024-03-08T11:36:22;9.00;1.00
1680;DHT22;838;51.794;12.258;2024-03-08T11:38:50;9.20;1.00
1680;DHT22;838;51.794;12.258;2024-03-08T11:41:23;9.40;1.00
1680;DHT22;838;51.794;12.258;2024-03-08T11:43:50;9.40;1.00
1680;DHT22;838;51.794;12.258;2024-03-08T11:46:26;9.40;1.00
1680;DHT22;838;51.794;12.258;2024-03-08T11:48:54;9.40;1.00
1680;DHT22;838;51.794;12.258;2024-03-08T11:51:21;9.40;1.00
1680;DHT22;838;51.794;12.258;2024-03-08T11:53:49;9.30;1.00
1680;DHT22;838;51.794;12.258;2024-03-08T11:56:15;9.40;1.00
1680;DHT22;838;51.794;12.258;2024-03-08T11:58:42;9.50;1.00
1680;DHT22;838;51.794;12.258;2024-03-08T12:01:09;9.40;1.00
1680;DHT22;838;51.794;12.258;2024-03-08T12:03:38;9.50;1.00
1680;DHT22;838;51.794;12.258;2024-03-08T12:06:04;9.50;1.00
1680;DHT22;838;51.794;12.258;2024-03-08T12:08:33;9.50;1.00
1680;DHT22;838;51.794;12.258;2024-03-08T12:10:58;9.40;1.00
1680;DHT22;838;51.794;12.258;2024-03-08T12:13:28;9.70;1.00
1680;DHT22;838;51.794;12.258;2024-03-08T12:15:58;9.80;1.00
1680;DHT22;838;51.794;12.258;2024-03-08T12:18:27;9.80;1.00
1680;DHT22;838;51.794;12.258;2024-03-08T12:21:12;9.90;1.00
1680;DHT22;838;51.794;12.258;2024-03-08T12:23:45;9.80;1.00
1680;DHT22;838;51.794;12.258;2024-03-08T12:26:18;9.60;1.00
1680;DHT22;838;51.794;12.258;2024-03-08T12:28:48;9.60;1.00
1680;DHT22;838;51.794;12.258;2024-03-08T12:31:17;9.60;1.00
1680;DHT22;838;51.794;12.258;2024-03-08T12:33:55;9.60;1.00
1680;DHT22;838;51.794;12.258;2024-03-08T12:36:24;9.40;1.00
1680;DHT22;838;51.794;12.258;2024-03-08T12:38:51;9.30;1.00
1680;DHT22;838;51.794;12.258;2024-03-08T12:41:20;9.40;1.00
1680;DHT22;838;51.794;12.258;2024-03-08T12:43:47;9.50;1.00
1680;DHT22;838;51.794;12.258;2024-03-08T12:46:19;9.50;1.00
1680;DHT22;838;51.794;12.258;2024-03-08T12:48:48;9.40;1.00
1680;DHT22;838;51.794;12.258;2024-03-08T12:51:17;9.50;1.00
1680;DHT22;838;51.794;12.258;2024-03-08T12:53:44;9.70;1.00
1680;DHT22;838;51.794;12.258;2024-03-08T12:56:16;9.70;1.00
1680;DHT22;838;51.794;12.258;2024-03-08T12:58:46;9.70;1.00
1680;DHT22;838;51.794;12.258;2024-03-08T13:01:11;9.70;1.00
1680;DHT22;838;51.794;12.258;2024-03-08T13:03:39;9.70;1.00
1680;DHT22;838;51.794;12.258;2024-03-08T13:06:05;9.70;1.00
1680;DHT22;838;51.794;12.258;2024-03-08T13:08:38;9.80;1.00
1680;DHT22;838;51.794;12.258;2024-03-08T13:11:10;9.80;1.00
1680;DHT22;838;51.794;12.258;2024-03-08T13:13:40;9.70;1.00
1680;DHT22;838;51.794;12.258;2024-03-08T13:16:06;9.60;1.00
1680;DHT22;838;51.794;12.258;2024-03-08T13:18:36;9.70;1.00
1680;DHT22;838;51.794;12.258;2024-03-08T13:21:01;9.70;1.00
1680;DHT22;838;51.794;12.258;2024-03-08T13:23:37;9.80;1.00
1680;DHT22;838;51.794;12.258;2024-03-08T13:26:10;9.80;1.00
1680;DHT22;838;51.794;12.258;2024-03-08T13:28:46;9.80;1.00
1680;DHT22;838;51.794;12.258;2024-03-08T13:31:14;9.60;1.00
1680;DHT22;838;51.794;12.258;2024-03-08T13:33:40;9.60;1.00
1680;DHT22;838;51.794;12.258;2024-03-08T13:36:08;9.60;1.00
1680;DHT22;838;51.794;12.258;2024-03-08T13:38:44;9.80;1.00
1680;DHT22;838;51.794;12.258;2024-03-08T13:41:14;9.90;1.00
1680;DHT22;838;51.794;12.258;2024-03-08T13:43:41;10.00;1.00
1680;DHT22;838;51.794;12.258;2024-03-08T13:46:07;9.90;1.00
1680;DHT22;838;51.794;12.258;2024-03-08T13:48:36;9.90;1.00
1680;DHT22;838;51.794;12.258;2024-03-08T13:51:04;9.90;1.00
1680;DHT22;838;51.794;12.258;2024-03-08T13:53:31;9.90;1.00
1680;DHT22;838;51.794;12.258;2024-03-08T13:55:58;10.00;1.00
1680;DHT22;838;51.794;12.258;2024-03-08T13:58:27;10.10;1.00
1680;DHT22;838;51.794;12.258;2024-03-08T14:00:52;10.20;1.00
1680;DHT22;838;51.794;12.258;2024-03-08T14:03:18;10.20;1.00
1680;DHT22;838;51.794;12.258;2024-03-08T14:05:44;10.10;1.00
1680;DHT22;838;51.794;12.258;2024-03-08T14:08:11;10.20;1.00
1680;DHT22;838;51.794;12.258;2024-03-08T14:10:37;10.00;1.00
1680;DHT22;838;51.794;12.258;2024-03-08T14:13:04;10.00;1.00
1680;DHT22;838;51.794;12.258;2024-03-08T14:15:33;10.00;1.00
1680;DHT22;838;51.794;12.258;2024-03-08T14:18:00;10.10;1.00
1680;DHT22;838;51.794;12.258;2024-03-08T14:20:26;10.10;1.00
1680;DHT22;838;51.794;12.258;2024-03-08T14:22:53;10.00;1.00
1680;DHT22;838;51.794;12.258;2024-03-08T14:25:20;10.10;1.00
1680;DHT22;838;51.794;12.258;2024-03-08T14:27:49;10.10;1.00
1680;DHT22;838;51.794;12.258;2024-03-08T14:30:16;10.10;1.00
1680;DHT22;838;51.794;12.258;2024-03-08T14:33:04;10.10;1.00
1680;DHT22;838;51.794;12.258;2024-03-08T14:35:35;10.20;1.00
1680;DHT22;838;51.794;12.258;2024-03-08T14:38:01;10.30;1.00
1680;DHT22;838;51.794;12.258;2024-03-08T14:40:27;10.20;1.00
1680;DHT22;838;51.794;12.258;2024-03-08T14:42:53;10.10;1.00
1680;DHT22;838;51.794;12.258;2024-03-08T14:45:19;10.10;1.00
1680;DHT22;838;51.794;12.258;2024-03-08T14:47:48;10.20;1.00
1680;DHT22;838;51.794;12.258;2024-03-08T14:50:18;10.20;1.00
1680;DHT22;838;51.794;12.258;2024-03-08T14:52:44;10.10;1.00
1680;DHT22;838;51.794;12.258;2024-03-08T14:55:17;10.00;1.00
1680;DHT22;838;51.794;12.258;2024-03-08T14:57:45;10.00;1.00
1680;DHT22;838;51.794;12.258;2024-03-08T15:00:12;10.00;1.00
1680;DHT22;838;51.794;12.258;2024-03-08T15:02:43;10.10;1.00
1680;DHT22;838;51.794;12.258;2024-03-08T15:05:09;10.10;1.00
1680;DHT22;838;51.794;12.258;2024-03-08T15:07:37;10.10;1.00
1680;DHT22;838;51.794;12.258;2024-03-08T15:10:09;10.10;1.00
1680;DHT22;838;51.794;12.258;2024-03-08T15:12:40;10.00;1.00
1680;DHT22;838;51.794;12.258;2024-03-08T15:15:09;9.90;1.00
1680;DHT22;838;51.794;12.258;2024-03-08T15:17:37;9.90;1.00
1680;DHT22;838;51.794;12.258;2024-03-08T15:20:08;10.00;1.00
1680;DHT22;838;51.794;12.258;2024-03-08T15:22:43;9.90;1.00
1680;DHT22;838;51.794;12.258;2024-03-08T15:25:10;9.80;1.00
1680;DHT22;838;51.794;12.258;2024-03-08T15:27:46;9.70;1.00
1680;DHT22;838;51.794;12.258;2024-03-08T15:30:12;9.70;1.00
1680;DHT22;838;51.794;12.258;2024-03-08T15:32:46;9.60;1.00
1680;DHT22;838;51.794;12.258;2024-03-08T15:35:16;9.50;1.00
1680;DHT22;838;51.794;12.258;2024-03-08T15:37:45;9.50;1.00
1680;DHT22;838;51.794;12.258;2024-03-08T15:40:12;9.50;1.00
1680;DHT22;838;51.794;12.258;2024-03-08T15:42:59;9.50;1.00
1680;DHT22;838;51.794;12.258;2024-03-08T15:45:25;9.50;1.00
1680;DHT22;838;51.794;12.258;2024-03-08T15:47:55;9.70;1.00
1680;DHT22;838;51.794;12.258;2024-03-08T15:50:21;9.60;1.00
1680;DHT22;838;51.794;12.258;2024-03-08T15:52:49;9.70;1.00
1680;DHT22;838;51.794;12.258;2024-03-08T15:55:19;9.70;1.00
1680;DHT22;838;51.794;12.258;2024-03-08T15:57:46;9.60;1.00
1680;DHT22;838;51.794;12.258;2024-03-08T16:00:19;9.60;1.00
1680;DHT22;838;51.794;12.258;2024-03-08T16:03:12;9.50;1.00
1680;DHT22;838;51.794;12.258;2024-03-08T16:05:42;9.40;1.00
1680;DHT22;838;51.794;12.258;2024-03-08T16:08:12;9.40;1.00
1680;DHT22;838;51.794;12.258;2024-03-08T16:10:49;9.40;1.00
1680;DHT22;838;51.794;12.258;2024-03-08T16:13:16;9.30;1.00
1680;DHT22;838;51.794;12.258;2024-03-08T16:15:45;9.30;1.00
1680;DHT22;838;51.794;12.258;2024-03-08T16:18:12;9.20;1.00
1680;DHT22;838;51.794;12.258;2024-03-08T16:20:41;9.10;1.00
1680;DHT22;838;51.794;12.258;2024-03-08T16:23:13;8.90;1.00
1680;DHT22;838;51.794;12.258;2024-03-08T16:25:42;8.90;1.00
1680;DHT22;838;51.794;12.258;2024-03-08T16:28:08;9.00;1.00
1680;DHT22;838;51.794;12.258;2024-03-08T16:30:34;8.90;1.00
1680;DHT22;838;51.794;12.258;2024-03-08T16:33:00;8.80;1.00
1680;DHT22;838;51.794;12.258;2024-03-08T16:35:26;8.80;1.00
1680;DHT22;838;51.794;12.258;2024-03-08T16:37:52;8.60;1.00